Terminal Aerodrome Forecast
Issued by NWS

Home | Current Version | Previous Version | Text Only | Print | Product List | Glossary On
Versions: 1 2 3 4 5 6 7 8 9 10 11 12 13 14 15
000
FTUS45 KREV 311100
TAFTRK
TAF
KTRK 311130Z 3112/0112 22009G15KT P6SM SCT140 OVC180
     FM311400 22013G22KT P6SM SCT070 BKN140
     FM312000 22014G26KT P6SM SCT040 BKN070
     FM312300 23011KT P6SM -RA BKN035 OVC070
     FM010200 24009KT 3SM -RASN SCT010 OVC025
     FM010600 VRB04KT 2SM -SN OVC006=

USA.gov is the U.S. government's official web portal to all federal, state and local government web resources and services.